Shinko Maru — JL6636 — position and weather

sailwx.info

Track history (hours):
 
Tides and Currents Weather Stations Pressure Air Temp Water Temp Dewpoint Dewpoint Depression Visibility Wind Speed Wind Dir Waves Ship Positions

Shinko Maru

Last reported at 2017-Dec-17 16:32 UTC. Time now 2017-Dec-17 17:33 UTC.
Position N 34°04' E 132°49'.

Length 66 m; draft 3.7 m.

Type: Tanker. MMSI: 431501479.

Date/timePositionNaut miles runAvg speedWind from/ knotsBaromVisibWave heightAir tempDewpointWater temp
2017-Dec-17 16:32N 34°04' E 132°49'310.5
2017-Dec-17 16:13N 34°01' E 132°47'2 9.9
2017-Dec-17 16:00N 33°60' E 132°45'510.3
2017-Dec-17 15:30N 33°56' E 132°41'610.6
2017-Dec-17 14:59N 33°53' E 132°35'611.2
2017-Dec-17 14:29N 33°51' E 132°29'611.2
2017-Dec-17 13:59N 33°50' E 132°22'711.5
2017-Dec-17 13:24N 33°50' E 132°14'511.4
2017-Dec-17 12:59N 33°48' E 132°09'611.6
2017-Dec-17 12:31N 33°45' E 132°03'611.7
2017-Dec-17 12:00N 33°49' E 131°58'912.0
2017-Dec-17 11:15N 33°55' E 131°49'311.9
2017-Dec-17 11:00N 33°56' E 131°46'611.7
2017-Dec-17 10:30N 34°00' E 131°41'2 3.4
2017-Dec-17 09:59N 34°02' E 131°41'0 0.0
2017-Dec-17 09:29N 34°02' E 131°41'0 0.0
2017-Dec-17 08:53N 34°02' E 131°41'0 0.1
2017-Dec-17 08:29N 34°02' E 131°41'4 7.6
2017-Dec-17 08:00N 34°03' E 131°45'0 0.0
2017-Dec-17 05:12N 34°03' E 131°45'0 1.9
2017-Dec-17 05:00N 34°02' E 131°45'3 6.0
2017-Dec-17 04:26N 34°02' E 131°41'0 0.0
2017-Dec-17 03:55N 34°02' E 131°41'0 0.0
2017-Dec-17 03:25N 34°02' E 131°41'0 0.0
2017-Dec-17 02:55N 34°02' E 131°41'0 0.0
2017-Dec-17 02:25N 34°02' E 131°41'0 0.0
2017-Dec-17 01:55N 34°02' E 131°41'0 0.0
2017-Dec-17 01:25N 34°02' E 131°41'0 0.0
2017-Dec-17 00:49N 34°02' E 131°41'0 0.0
2017-Dec-17 00:20N 34°02' E 131°41'2 6.5
2017-Dec-17 00:01N 33°60' E 131°41'510.8
2017-Dec-16 23:30N 33°56' E 131°46'510.8
2017-Dec-16 23:00N 33°53' E 131°51'610.5
2017-Dec-16 22:29N 33°50' E 131°56'510.4
2017-Dec-16 22:01N 33°47' E 132°01'6 9.4
2017-Dec-16 21:22N 33°48' E 132°08'410.0
2017-Dec-16 20:57N 33°50' E 132°13'510.4
2017-Dec-16 20:30N 33°50' E 132°18'810.2
2017-Dec-16 19:41N 33°52' E 132°28'210.5
2017-Dec-16 19:28N 33°53' E 132°31'511.0
2017-Dec-16 19:00N 33°54' E 132°36'611.3
2017-Dec-16 18:30N 33°57' E 132°42'8210.2
2017-Dec-16 10:28N 34°25' E 134°16'511.3
2017-Dec-16 09:59N 34°26' E 134°22'611.4
2017-Dec-16 09:30N 34°28' E 134°28'611.1
2017-Dec-16 09:00N 34°30' E 134°35'510.9
2017-Dec-16 08:31N 34°32' E 134°41'611.1
2017-Dec-16 08:00N 34°34' E 134°47'611.1
2017-Dec-16 07:30N 34°36' E 134°53'510.6
2017-Dec-16 07:01N 34°38' E 134°59'5 9.5
2017-Dec-16 06:30N 34°36' E 135°05'510.9
2017-Dec-16 06:01N 34°35' E 135°12'510.8
2017-Dec-16 05:31N 34°34' E 135°18'510.9
2017-Dec-16 05:00N 34°33' E 135°24'1 1.9
2017-Dec-16 04:26N 34°33' E 135°26'0 0.0
2017-Dec-16 03:59N 34°33' E 135°26'0 0.0
2017-Dec-16 03:26N 34°33' E 135°26'0 0.0
2017-Dec-16 02:59N 34°33' E 135°26'0 0.0
2017-Dec-16 02:26N 34°33' E 135°26'0 0.0
2017-Dec-16 01:56N 34°33' E 135°26'0 0.0
2017-Dec-16 01:29N 34°33' E 135°26'0 0.0
2017-Dec-16 00:59N 34°33' E 135°26'0 0.0
2017-Dec-16 00:29N 34°33' E 135°26'0 0.0
2017-Dec-15 23:56N 34°33' E 135°26'0 0.0
2017-Dec-15 23:26N 34°33' E 135°26'0 0.0
2017-Dec-15 22:59N 34°33' E 135°26'0 0.0
2017-Dec-15 22:29N 34°33' E 135°26'1 2.2
2017-Dec-15 22:01N 34°33' E 135°24'1 1.8
2017-Dec-15 21:28N 34°34' E 135°23'0 0.0
2017-Dec-15 20:55N 34°34' E 135°23'0 0.0
2017-Dec-15 20:25N 34°34' E 135°23'0 0.0
2017-Dec-15 19:55N 34°34' E 135°23'0 0.0
2017-Dec-15 19:28N 34°34' E 135°23'0 0.0
2017-Dec-15 18:55N 34°34' E 135°23'0 0.0
2017-Dec-15 18:28N 34°34' E 135°23'0 0.1
2017-Dec-15 17:55N 34°34' E 135°23'0 0.0
2017-Dec-15 17:28N 34°34' E 135°23'0 0.0
2017-Dec-15 16:55N 34°34' E 135°23'0 0.0
2017-Dec-15 16:28N 34°34' E 135°23'0 0.0
2017-Dec-15 15:52N 34°34' E 135°23'0 0.0
2017-Dec-15 15:28N 34°34' E 135°23'0 0.0
2017-Dec-15 14:58N 34°34' E 135°23'0 0.0
2017-Dec-15 14:25N 34°34' E 135°23'0 0.0
2017-Dec-15 13:58N 34°34' E 135°23'0 0.0
2017-Dec-15 13:28N 34°34' E 135°23'0 0.0
2017-Dec-15 12:55N 34°34' E 135°23'0 0.0
2017-Dec-15 12:28N 34°34' E 135°23'0 0.1
2017-Dec-15 11:58N 34°34' E 135°23'0 0.0
2017-Dec-15 11:28N 34°34' E 135°23'0 0.0
2017-Dec-15 10:55N 34°34' E 135°23'0 0.2
2017-Dec-15 10:28N 34°34' E 135°23'0 0.0
2017-Dec-15 09:55N 34°34' E 135°23'0 0.0
2017-Dec-15 09:25N 34°34' E 135°23'0 0.0
2017-Dec-15 08:56N 34°34' E 135°23'4 8.9
2017-Dec-15 08:31N 34°34' E 135°19'612.0
2017-Dec-15 08:00N 34°34' E 135°11'612.4
2017-Dec-15 07:31N 34°35' E 135°04'510.8
2017-Dec-15 07:01N 34°36' E 134°58'612.3
2017-Dec-15 06:30N 34°34' E 134°51'612.0
2017-Dec-15 06:01N 34°32' E 134°44'612.0
2017-Dec-15 05:31N 34°29' E 134°37'612.1
2017-Dec-15 05:00N 34°27' E 134°30'1611.9
2017-Dec-15 03:41N 34°25' E 134°12'76 3.7
2017-Dec-14 07:16N 34°06' E 132°42'312.3
2017-Dec-14 07:00N 34°05' E 132°39'611.6
2017-Dec-14 06:27N 34°03' E 132°31'511.9
2017-Dec-14 06:00N 34°05' E 132°26'611.8
2017-Dec-14 05:30N 34°09' E 132°20'612.0
2017-Dec-14 05:00N 34°13' E 132°15'1 2.4
2017-Dec-14 04:30N 34°14' E 132°14'0 0.0
2017-Dec-14 04:00N 34°14' E 132°14'0 0.0
2017-Dec-14 03:30N 34°14' E 132°14'0 0.0
2017-Dec-14 03:00N 34°14' E 132°14'0 0.0
2017-Dec-14 02:30N 34°14' E 132°14'0 0.0
2017-Dec-14 02:00N 34°14' E 132°14'1 1.3
2017-Dec-14 01:30N 34°14' E 132°15'611.1
2017-Dec-14 01:00N 34°09' E 132°17'511.0
2017-Dec-14 00:30N 34°03' E 132°15'611.1
2017-Dec-14 00:00N 33°58' E 132°12'4 8.4
2017-Dec-13 23:29N 33°55' E 132°09'510.8
2017-Dec-13 23:00N 33°50' E 132°09'611.6
2017-Dec-13 22:30N 33°46' E 132°04'611.3
2017-Dec-13 22:00N 33°45' E 131°57'611.5
2017-Dec-13 21:30N 33°46' E 131°50'611.4
2017-Dec-13 21:00N 33°47' E 131°44'611.3
2017-Dec-13 20:30N 33°48' E 131°37'611.1
2017-Dec-13 20:00N 33°49' E 131°30'611.1
2017-Dec-13 19:31N 33°50' E 131°24'611.0
2017-Dec-13 19:00N 33°51' E 131°17'511.1
2017-Dec-13 18:31N 33°53' E 131°11'611.1
2017-Dec-13 18:00N 33°56' E 131°05'611.1
2017-Dec-13 17:30N 33°58' E 130°59'611.7
2017-Dec-13 17:00N 33°55' E 130°54'511.1
2017-Dec-13 16:31N 33°58' E 130°48'611.0
2017-Dec-13 16:00N 33°58' E 130°42'510.5
2017-Dec-13 15:30N 33°57' E 130°35'510.6
2017-Dec-13 15:00N 33°57' E 130°29'510.4
2017-Dec-13 14:30N 33°55' E 130°23'510.9
2017-Dec-13 14:00N 33°53' E 130°17'5 9.7
2017-Dec-13 13:30N 33°50' E 130°12'510.8
2017-Dec-13 13:00N 33°47' E 130°07'510.9
2017-Dec-13 12:30N 33°44' E 130°01'810.8
2017-Dec-13 11:43N 33°39' E 129°53'210.7
2017-Dec-13 11:30N 33°38' E 129°51'4 0.1
2017-Dec-12 07:59N 33°35' E 129°48'911.1
2017-Dec-12 07:10N 33°41' E 129°56'211.4
2017-Dec-12 07:00N 33°42' E 129°58'611.3
2017-Dec-12 06:30N 33°46' E 130°03'611.3
2017-Dec-12 06:00N 33°49' E 130°09'611.3
2017-Dec-12 05:30N 33°52' E 130°15'611.3
2017-Dec-12 05:00N 33°55' E 130°21'611.3
2017-Dec-12 04:30N 33°57' E 130°27'510.9
2017-Dec-12 04:00N 33°60' E 130°33'510.6
2017-Dec-12 03:30N 34°01' E 130°39'510.0
2017-Dec-12 03:00N 34°02' E 130°45'5 9.5
2017-Dec-12 02:30N 34°01' E 130°50'4 8.4
2017-Dec-12 02:00N 33°57' E 130°52'4 7.7
2017-Dec-12 01:30N 33°55' E 130°55'4 8.0
2017-Dec-12 01:00N 33°58' E 130°58'3 6.1
2017-Dec-12 00:30N 33°58' E 131°02'510.3
2017-Dec-12 00:00N 33°55' E 131°07'510.1
2017-Dec-11 23:30N 33°53' E 131°12'510.1
2017-Dec-11 23:00N 33°52' E 131°18'611.1
2017-Dec-11 22:30N 33°51' E 131°25'510.6
2017-Dec-11 22:00N 33°50' E 131°31'510.4
2017-Dec-11 21:30N 33°49' E 131°37'510.3
2017-Dec-11 21:00N 33°48' E 131°43'510.1
2017-Dec-11 20:27N 33°47' E 131°50'6 9.8
2017-Dec-11 19:50N 33°46' E 131°57'4 9.9
2017-Dec-11 19:29N 33°46' E 132°01'610.4
2017-Dec-11 18:54N 33°48' E 132°08'510.8
2017-Dec-11 18:29N 33°50' E 132°13'610.7
2017-Dec-11 17:55N 33°50' E 132°20'510.4
2017-Dec-11 17:24N 33°51' E 132°26'410.4
2017-Dec-11 17:00N 33°53' E 132°31'510.4
2017-Dec-11 16:30N 33°55' E 132°37'510.3
2017-Dec-11 16:00N 33°57' E 132°42'86 9.3
2017-Dec-11 06:41N 34°25' E 134°21'211.0
2017-Dec-11 06:29N 34°26' E 134°23'511.0
2017-Dec-11 06:00N 34°28' E 134°29'510.8
2017-Dec-11 05:30N 34°30' E 134°35'510.8
2017-Dec-11 05:00N 34°32' E 134°41'611.4
2017-Dec-11 04:30N 34°34' E 134°48'612.1
2017-Dec-11 04:00N 34°36' E 134°55'511.0
2017-Dec-11 03:30N 34°37' E 135°01'510.6
2017-Dec-11 03:00N 34°35' E 135°07'510.7
2017-Dec-11 02:30N 34°35' E 135°14'510.5
2017-Dec-11 02:00N 34°34' E 135°20'5 9.1
2017-Dec-11 01:31N 34°33' E 135°26'0 0.2
2017-Dec-11 01:00N 34°33' E 135°26'0 0.0
2017-Dec-11 00:30N 34°33' E 135°26'0 0.0
2017-Dec-11 00:00N 34°33' E 135°26'0 0.0
2017-Dec-10 23:30N 34°33' E 135°26'0 0.0
2017-Dec-10 23:00N 34°33' E 135°26'1 2.1
2017-Dec-10 22:31N 34°33' E 135°24'1 2.1
2017-Dec-10 21:58N 34°34' E 135°23'0 0.0
2017-Dec-10 21:28N 34°34' E 135°23'0 0.0
2017-Dec-10 20:58N 34°34' E 135°23'0 0.0
2017-Dec-10 20:28N 34°34' E 135°23'0 0.0
2017-Dec-10 19:58N 34°34' E 135°23'0 0.0
2017-Dec-10 19:28N 34°34' E 135°23'0 0.0
2017-Dec-10 18:58N 34°34' E 135°23'0 0.0
2017-Dec-10 18:28N 34°34' E 135°23'0 0.0
2017-Dec-10 17:58N 34°34' E 135°23'0 0.0
2017-Dec-10 17:28N 34°34' E 135°23'0 0.0
2017-Dec-10 16:58N 34°34' E 135°23'0 0.0
2017-Dec-10 16:28N 34°34' E 135°23'0 0.0
2017-Dec-10 15:58N 34°34' E 135°23'0 0.0
2017-Dec-10 15:28N 34°34' E 135°23'0 0.0
2017-Dec-10 14:58N 34°34' E 135°23'0 0.0
2017-Dec-10 14:28N 34°34' E 135°23'0 0.0
2017-Dec-10 13:58N 34°34' E 135°23'0 0.0
2017-Dec-10 13:28N 34°34' E 135°23'0 0.0
2017-Dec-10 12:58N 34°34' E 135°23'0 0.0
2017-Dec-10 12:28N 34°34' E 135°23'0 0.0
2017-Dec-10 11:58N 34°34' E 135°23'0 0.0
2017-Dec-10 11:28N 34°34' E 135°23'0 0.0
2017-Dec-10 10:58N 34°34' E 135°23'0 0.0
2017-Dec-10 10:28N 34°34' E 135°23'0 0.0
2017-Dec-10 09:58N 34°34' E 135°23'0 0.0
2017-Dec-10 09:28N 34°34' E 135°23'0 0.0
2017-Dec-10 08:58N 34°34' E 135°23'0 0.0
2017-Dec-10 08:28N 34°34' E 135°23'0 0.0
2017-Dec-10 07:58N 34°34' E 135°23'0 0.0
2017-Dec-10 07:28N 34°34' E 135°23'0 0.0
2017-Dec-10 06:58N 34°34' E 135°23'0 0.0
2017-Dec-10 06:28N 34°34' E 135°23'0 0.0
2017-Dec-10 05:58N 34°34' E 135°23'0 0.0
2017-Dec-10 05:28N 34°34' E 135°23'0 0.0
2017-Dec-10 04:58N 34°34' E 135°23'0 0.0
2017-Dec-10 04:28N 34°34' E 135°23'0 0.0
2017-Dec-10 03:55N 34°34' E 135°23'0 0.0
2017-Dec-10 03:28N 34°34' E 135°23'0 0.0
2017-Dec-10 02:58N 34°34' E 135°23'0 0.0
2017-Dec-10 02:28N 34°34' E 135°23'0 0.1
2017-Dec-10 01:58N 34°34' E 135°23'0 0.0
2017-Dec-10 01:28N 34°34' E 135°23'0 0.0
2017-Dec-10 00:58N 34°34' E 135°23'0 0.0
2017-Dec-10 00:30N 34°34' E 135°23'5 9.2
2017-Dec-10 00:00N 34°34' E 135°18'611.5
2017-Dec-09 23:30N 34°34' E 135°11'611.7
2017-Dec-09 23:00N 34°36' E 135°04'612.4
2017-Dec-09 22:31N 34°36' E 134°56'713.4
2017-Dec-09 22:01N 34°33' E 134°49'612.3
2017-Dec-09 21:30N 34°31' E 134°42'612.0
2017-Dec-09 21:00N 34°29' E 134°35'611.9
2017-Dec-09 20:30N 34°26' E 134°28'1411.8
2017-Dec-09 19:18N 34°25' E 134°11'7410.7
2017-Dec-09 12:23N 34°01' E 132°46'411.0
2017-Dec-09 12:00N 33°58' E 132°43'510.5
2017-Dec-09 11:29N 33°54' E 132°38'611.0
2017-Dec-09 10:59N 33°52' E 132°32'610.9
2017-Dec-09 10:25N 33°50' E 132°25'510.7
2017-Dec-09 09:55N 33°50' E 132°18'611.1
2017-Dec-09 09:23N 33°49' E 132°11'411.0
2017-Dec-09 09:00N 33°47' E 132°07'1011.1
2017-Dec-09 08:05N 33°45' E 131°55'111.9
2017-Dec-09 08:00N 33°45' E 131°54'612.1
2017-Dec-09 07:30N 33°46' E 131°47'612.3
2017-Dec-09 07:00N 33°48' E 131°39'612.0
2017-Dec-09 06:30N 33°49' E 131°32'611.9
2017-Dec-09 06:00N 33°50' E 131°25'611.8
2017-Dec-09 05:30N 33°51' E 131°18'611.8
2017-Dec-09 05:00N 33°53' E 131°12'611.4
2017-Dec-09 04:30N 33°56' E 131°06'510.7
2017-Dec-09 04:01N 33°58' E 131°00'4 8.4
2017-Dec-09 03:30N 33°56' E 130°56'3 6.2
2017-Dec-09 03:00N 33°55' E 130°53'1 2.1
2017-Dec-09 02:25N 33°55' E 130°51'0 0.0
2017-Dec-09 01:58N 33°55' E 130°51'0 0.0
2017-Dec-09 01:25N 33°55' E 130°51'0 0.0
2017-Dec-09 00:58N 33°55' E 130°51'0 0.1
2017-Dec-09 00:30N 33°55' E 130°51'3 6.4
2017-Dec-09 00:00N 33°55' E 130°55'4 7.8
2017-Dec-08 23:30N 33°58' E 130°58'4 7.6
2017-Dec-08 23:00N 33°58' E 131°02'511.0
2017-Dec-08 22:30N 33°55' E 131°08'611.1
2017-Dec-08 22:00N 33°52' E 131°14'611.0
2017-Dec-08 21:30N 33°51' E 131°20'510.8
2017-Dec-08 21:00N 33°51' E 131°27'510.6
2017-Dec-08 20:30N 33°50' E 131°33'510.6
2017-Dec-08 20:01N 33°49' E 131°39'510.2
2017-Dec-08 19:30N 33°47' E 131°45'610.1
2017-Dec-08 18:56N 33°46' E 131°52'810.4
2017-Dec-08 18:07N 33°45' E 132°02'211.3
2017-Dec-08 17:58N 33°46' E 132°04'611.7
2017-Dec-08 17:28N 33°49' E 132°10'711.2
2017-Dec-08 16:48N 33°50' E 132°19'1010.9
2017-Dec-08 15:55N 33°52' E 132°30'410.7
2017-Dec-08 15:30N 33°54' E 132°35'510.1
2017-Dec-08 15:00N 33°56' E 132°40'5 9.9
2017-Dec-08 14:30N 34°00' E 132°44'85 9.5
2017-Dec-08 05:30N 34°25' E 134°23'510.8
2017-Dec-08 05:00N 34°28' E 134°29'510.9
2017-Dec-08 04:31N 34°29' E 134°35'611.1
2017-Dec-08 04:01N 34°32' E 134°41'612.4
2017-Dec-08 03:30N 34°34' E 134°48'713.7
2017-Dec-08 03:00N 34°36' E 134°56'612.9
2017-Dec-08 02:30N 34°36' E 135°04'611.1
2017-Dec-08 02:00N 34°35' E 135°11'611.3
2017-Dec-08 01:30N 34°34' E 135°17'611.2
2017-Dec-08 01:00N 34°33' E 135°24'1 2.4
2017-Dec-08 00:27N 34°33' E 135°26'0 0.0
2017-Dec-07 23:57N 34°33' E 135°26'0 0.0
2017-Dec-07 23:15N 34°33' E 135°26'0 0.0
2017-Dec-07 22:57N 34°33' E 135°26'0 0.0
2017-Dec-07 22:30N 34°33' E 135°26'1 2.1
2017-Dec-07 22:00N 34°33' E 135°24'1 1.9
2017-Dec-07 21:26N 34°34' E 135°23'0 0.1
2017-Dec-07 20:59N 34°34' E 135°23'0 0.0
2017-Dec-07 20:29N 34°34' E 135°23'0 0.0
2017-Dec-07 19:59N 34°34' E 135°23'0 0.0
2017-Dec-07 19:29N 34°34' E 135°23'0 0.0
2017-Dec-07 18:59N 34°34' E 135°23'0 0.0
2017-Dec-07 18:29N 34°34' E 135°23'0 0.0
2017-Dec-07 17:59N 34°34' E 135°23'0 0.0
2017-Dec-07 17:29N 34°34' E 135°23'0 0.0
2017-Dec-07 16:59N 34°34' E 135°23'  
Track history (hours):
 
Tides and Currents Weather Stations Pressure Air Temp Water Temp Dewpoint Dewpoint Depression Visibility Wind Speed Wind Dir Waves Ship Positions

Shinko Maru

Last reported at 2017-Dec-17 16:32 UTC. Time now 2017-Dec-17 17:33 UTC.
Position N 34°04' E 132°49'.

Length 66 m; draft 3.7 m.

Type: Tanker. MMSI: 431501479.

Date/timePositionNaut miles runAvg speedWind from/ knotsBaromVisibWave heightAir tempDewpointWater temp
2017-Dec-17 16:32N 34°04' E 132°49'310.5
2017-Dec-17 16:13N 34°01' E 132°47'2 9.9
2017-Dec-17 16:00N 33°60' E 132°45'510.3
2017-Dec-17 15:30N 33°56' E 132°41'610.6
2017-Dec-17 14:59N 33°53' E 132°35'611.2
2017-Dec-17 14:29N 33°51' E 132°29'611.2
2017-Dec-17 13:59N 33°50' E 132°22'711.5
2017-Dec-17 13:24N 33°50' E 132°14'511.4
2017-Dec-17 12:59N 33°48' E 132°09'611.6
2017-Dec-17 12:31N 33°45' E 132°03'611.7
2017-Dec-17 12:00N 33°49' E 131°58'912.0
2017-Dec-17 11:15N 33°55' E 131°49'311.9
2017-Dec-17 11:00N 33°56' E 131°46'611.7
2017-Dec-17 10:30N 34°00' E 131°41'2 3.4
2017-Dec-17 09:59N 34°02' E 131°41'0 0.0
2017-Dec-17 09:29N 34°02' E 131°41'0 0.0
2017-Dec-17 08:53N 34°02' E 131°41'0 0.1
2017-Dec-17 08:29N 34°02' E 131°41'4 7.6
2017-Dec-17 08:00N 34°03' E 131°45'0 0.0
2017-Dec-17 05:12N 34°03' E 131°45'0 1.9
2017-Dec-17 05:00N 34°02' E 131°45'3 6.0
2017-Dec-17 04:26N 34°02' E 131°41'0 0.0
2017-Dec-17 03:55N 34°02' E 131°41'0 0.0
2017-Dec-17 03:25N 34°02' E 131°41'0 0.0
2017-Dec-17 02:55N 34°02' E 131°41'0 0.0
2017-Dec-17 02:25N 34°02' E 131°41'0 0.0
2017-Dec-17 01:55N 34°02' E 131°41'0 0.0
2017-Dec-17 01:25N 34°02' E 131°41'0 0.0
2017-Dec-17 00:49N 34°02' E 131°41'0 0.0
2017-Dec-17 00:20N 34°02' E 131°41'2 6.5
2017-Dec-17 00:01N 33°60' E 131°41'510.8
2017-Dec-16 23:30N 33°56' E 131°46'510.8
2017-Dec-16 23:00N 33°53' E 131°51'610.5
2017-Dec-16 22:29N 33°50' E 131°56'510.4
2017-Dec-16 22:01N 33°47' E 132°01'6 9.4
2017-Dec-16 21:22N 33°48' E 132°08'410.0
2017-Dec-16 20:57N 33°50' E 132°13'510.4
2017-Dec-16 20:30N 33°50' E 132°18'810.2
2017-Dec-16 19:41N 33°52' E 132°28'210.5
2017-Dec-16 19:28N 33°53' E 132°31'511.0
2017-Dec-16 19:00N 33°54' E 132°36'611.3
2017-Dec-16 18:30N 33°57' E 132°42'8210.2
2017-Dec-16 10:28N 34°25' E 134°16'511.3
2017-Dec-16 09:59N 34°26' E 134°22'611.4
2017-Dec-16 09:30N 34°28' E 134°28'611.1
2017-Dec-16 09:00N 34°30' E 134°35'510.9
2017-Dec-16 08:31N 34°32' E 134°41'611.1
2017-Dec-16 08:00N 34°34' E 134°47'611.1
2017-Dec-16 07:30N 34°36' E 134°53'510.6
2017-Dec-16 07:01N 34°38' E 134°59'5 9.5
2017-Dec-16 06:30N 34°36' E 135°05'510.9
2017-Dec-16 06:01N 34°35' E 135°12'510.8
2017-Dec-16 05:31N 34°34' E 135°18'510.9
2017-Dec-16 05:00N 34°33' E 135°24'1 1.9
2017-Dec-16 04:26N 34°33' E 135°26'0 0.0
2017-Dec-16 03:59N 34°33' E 135°26'0 0.0
2017-Dec-16 03:26N 34°33' E 135°26'0 0.0
2017-Dec-16 02:59N 34°33' E 135°26'0 0.0
2017-Dec-16 02:26N 34°33' E 135°26'0 0.0
2017-Dec-16 01:56N 34°33' E 135°26'0 0.0
2017-Dec-16 01:29N 34°33' E 135°26'0 0.0
2017-Dec-16 00:59N 34°33' E 135°26'0 0.0
2017-Dec-16 00:29N 34°33' E 135°26'0 0.0
2017-Dec-15 23:56N 34°33' E 135°26'0 0.0
2017-Dec-15 23:26N 34°33' E 135°26'0 0.0
2017-Dec-15 22:59N 34°33' E 135°26'0 0.0
2017-Dec-15 22:29N 34°33' E 135°26'1 2.2
2017-Dec-15 22:01N 34°33' E 135°24'1 1.8
2017-Dec-15 21:28N 34°34' E 135°23'0 0.0
2017-Dec-15 20:55N 34°34' E 135°23'0 0.0
2017-Dec-15 20:25N 34°34' E 135°23'0 0.0
2017-Dec-15 19:55N 34°34' E 135°23'0 0.0
2017-Dec-15 19:28N 34°34' E 135°23'0 0.0
2017-Dec-15 18:55N 34°34' E 135°23'0 0.0
2017-Dec-15 18:28N 34°34' E 135°23'0 0.1
2017-Dec-15 17:55N 34°34' E 135°23'0 0.0
2017-Dec-15 17:28N 34°34' E 135°23'0 0.0
2017-Dec-15 16:55N 34°34' E 135°23'0 0.0
2017-Dec-15 16:28N 34°34' E 135°23'0 0.0
2017-Dec-15 15:52N 34°34' E 135°23'0 0.0
2017-Dec-15 15:28N 34°34' E 135°23'0 0.0
2017-Dec-15 14:58N 34°34' E 135°23'0 0.0
2017-Dec-15 14:25N 34°34' E 135°23'0 0.0
2017-Dec-15 13:58N 34°34' E 135°23'0 0.0
2017-Dec-15 13:28N 34°34' E 135°23'0 0.0
2017-Dec-15 12:55N 34°34' E 135°23'0 0.0
2017-Dec-15 12:28N 34°34' E 135°23'0 0.1
2017-Dec-15 11:58N 34°34' E 135°23'0 0.0
2017-Dec-15 11:28N 34°34' E 135°23'0 0.0
2017-Dec-15 10:55N 34°34' E 135°23'0 0.2
2017-Dec-15 10:28N 34°34' E 135°23'0 0.0
2017-Dec-15 09:55N 34°34' E 135°23'0 0.0
2017-Dec-15 09:25N 34°34' E 135°23'0 0.0
2017-Dec-15 08:56N 34°34' E 135°23'4 8.9
2017-Dec-15 08:31N 34°34' E 135°19'612.0
2017-Dec-15 08:00N 34°34' E 135°11'612.4
2017-Dec-15 07:31N 34°35' E 135°04'510.8
2017-Dec-15 07:01N 34°36' E 134°58'612.3
2017-Dec-15 06:30N 34°34' E 134°51'612.0
2017-Dec-15 06:01N 34°32' E 134°44'612.0
2017-Dec-15 05:31N 34°29' E 134°37'612.1
2017-Dec-15 05:00N 34°27' E 134°30'1611.9
2017-Dec-15 03:41N 34°25' E 134°12'76 3.7
2017-Dec-14 07:16N 34°06' E 132°42'312.3
2017-Dec-14 07:00N 34°05' E 132°39'611.6
2017-Dec-14 06:27N 34°03' E 132°31'511.9
2017-Dec-14 06:00N 34°05' E 132°26'611.8
2017-Dec-14 05:30N 34°09' E 132°20'612.0
2017-Dec-14 05:00N 34°13' E 132°15'1 2.4
2017-Dec-14 04:30N 34°14' E 132°14'0 0.0
2017-Dec-14 04:00N 34°14' E 132°14'0 0.0
2017-Dec-14 03:30N 34°14' E 132°14'0 0.0
2017-Dec-14 03:00N 34°14' E 132°14'0 0.0
2017-Dec-14 02:30N 34°14' E 132°14'0 0.0
2017-Dec-14 02:00N 34°14' E 132°14'1 1.3
2017-Dec-14 01:30N 34°14' E 132°15'611.1
2017-Dec-14 01:00N 34°09' E 132°17'511.0
2017-Dec-14 00:30N 34°03' E 132°15'611.1
2017-Dec-14 00:00N 33°58' E 132°12'4 8.4
2017-Dec-13 23:29N 33°55' E 132°09'510.8
2017-Dec-13 23:00N 33°50' E 132°09'611.6
2017-Dec-13 22:30N 33°46' E 132°04'611.3
2017-Dec-13 22:00N 33°45' E 131°57'611.5
2017-Dec-13 21:30N 33°46' E 131°50'611.4
2017-Dec-13 21:00N 33°47' E 131°44'611.3
2017-Dec-13 20:30N 33°48' E 131°37'611.1
2017-Dec-13 20:00N 33°49' E 131°30'611.1
2017-Dec-13 19:31N 33°50' E 131°24'611.0
2017-Dec-13 19:00N 33°51' E 131°17'511.1
2017-Dec-13 18:31N 33°53' E 131°11'611.1
2017-Dec-13 18:00N 33°56' E 131°05'611.1
2017-Dec-13 17:30N 33°58' E 130°59'611.7
2017-Dec-13 17:00N 33°55' E 130°54'511.1
2017-Dec-13 16:31N 33°58' E 130°48'611.0
2017-Dec-13 16:00N 33°58' E 130°42'510.5
2017-Dec-13 15:30N 33°57' E 130°35'510.6
2017-Dec-13 15:00N 33°57' E 130°29'510.4
2017-Dec-13 14:30N 33°55' E 130°23'510.9
2017-Dec-13 14:00N 33°53' E 130°17'5 9.7
2017-Dec-13 13:30N 33°50' E 130°12'510.8
2017-Dec-13 13:00N 33°47' E 130°07'510.9
2017-Dec-13 12:30N 33°44' E 130°01'810.8
2017-Dec-13 11:43N 33°39' E 129°53'210.7
2017-Dec-13 11:30N 33°38' E 129°51'4 0.1
2017-Dec-12 07:59N 33°35' E 129°48'911.1
2017-Dec-12 07:10N 33°41' E 129°56'211.4
2017-Dec-12 07:00N 33°42' E 129°58'611.3
2017-Dec-12 06:30N 33°46' E 130°03'611.3
2017-Dec-12 06:00N 33°49' E 130°09'611.3
2017-Dec-12 05:30N 33°52' E 130°15'611.3
2017-Dec-12 05:00N 33°55' E 130°21'611.3
2017-Dec-12 04:30N 33°57' E 130°27'510.9
2017-Dec-12 04:00N 33°60' E 130°33'510.6
2017-Dec-12 03:30N 34°01' E 130°39'510.0
2017-Dec-12 03:00N 34°02' E 130°45'5 9.5
2017-Dec-12 02:30N 34°01' E 130°50'4 8.4
2017-Dec-12 02:00N 33°57' E 130°52'4 7.7
2017-Dec-12 01:30N 33°55' E 130°55'4 8.0
2017-Dec-12 01:00N 33°58' E 130°58'3 6.1
2017-Dec-12 00:30N 33°58' E 131°02'510.3
2017-Dec-12 00:00N 33°55' E 131°07'510.1
2017-Dec-11 23:30N 33°53' E 131°12'510.1
2017-Dec-11 23:00N 33°52' E 131°18'611.1
2017-Dec-11 22:30N 33°51' E 131°25'510.6
2017-Dec-11 22:00N 33°50' E 131°31'510.4
2017-Dec-11 21:30N 33°49' E 131°37'510.3
2017-Dec-11 21:00N 33°48' E 131°43'510.1
2017-Dec-11 20:27N 33°47' E 131°50'6 9.8
2017-Dec-11 19:50N 33°46' E 131°57'4 9.9
2017-Dec-11 19:29N 33°46' E 132°01'610.4
2017-Dec-11 18:54N 33°48' E 132°08'510.8
2017-Dec-11 18:29N 33°50' E 132°13'610.7
2017-Dec-11 17:55N 33°50' E 132°20'510.4
2017-Dec-11 17:24N 33°51' E 132°26'410.4
2017-Dec-11 17:00N 33°53' E 132°31'510.4
2017-Dec-11 16:30N 33°55' E 132°37'510.3
2017-Dec-11 16:00N 33°57' E 132°42'86 9.3
2017-Dec-11 06:41N 34°25' E 134°21'211.0
2017-Dec-11 06:29N 34°26' E 134°23'511.0
2017-Dec-11 06:00N 34°28' E 134°29'510.8
2017-Dec-11 05:30N 34°30' E 134°35'510.8
2017-Dec-11 05:00N 34°32' E 134°41'611.4
2017-Dec-11 04:30N 34°34' E 134°48'612.1
2017-Dec-11 04:00N 34°36' E 134°55'511.0
2017-Dec-11 03:30N 34°37' E 135°01'510.6
2017-Dec-11 03:00N 34°35' E 135°07'510.7
2017-Dec-11 02:30N 34°35' E 135°14'510.5
2017-Dec-11 02:00N 34°34' E 135°20'5 9.1
2017-Dec-11 01:31N 34°33' E 135°26'0 0.2
2017-Dec-11 01:00N 34°33' E 135°26'0 0.0
2017-Dec-11 00:30N 34°33' E 135°26'0 0.0
2017-Dec-11 00:00N 34°33' E 135°26'0 0.0
2017-Dec-10 23:30N 34°33' E 135°26'0 0.0
2017-Dec-10 23:00N 34°33' E 135°26'1 2.1
2017-Dec-10 22:31N 34°33' E 135°24'1 2.1
2017-Dec-10 21:58N 34°34' E 135°23'0 0.0
2017-Dec-10 21:28N 34°34' E 135°23'0 0.0
2017-Dec-10 20:58N 34°34' E 135°23'0 0.0
2017-Dec-10 20:28N 34°34' E 135°23'0 0.0
2017-Dec-10 19:58N 34°34' E 135°23'0 0.0
2017-Dec-10 19:28N 34°34' E 135°23'0 0.0
2017-Dec-10 18:58N 34°34' E 135°23'0 0.0
2017-Dec-10 18:28N 34°34' E 135°23'0 0.0
2017-Dec-10 17:58N 34°34' E 135°23'0 0.0
2017-Dec-10 17:28N 34°34' E 135°23'0 0.0
2017-Dec-10 16:58N 34°34' E 135°23'0 0.0
2017-Dec-10 16:28N 34°34' E 135°23'0 0.0
2017-Dec-10 15:58N 34°34' E 135°23'0 0.0
2017-Dec-10 15:28N 34°34' E 135°23'0 0.0
2017-Dec-10 14:58N 34°34' E 135°23'0 0.0
2017-Dec-10 14:28N 34°34' E 135°23'0 0.0
2017-Dec-10 13:58N 34°34' E 135°23'0 0.0
2017-Dec-10 13:28N 34°34' E 135°23'0 0.0
2017-Dec-10 12:58N 34°34' E 135°23'0 0.0
2017-Dec-10 12:28N 34°34' E 135°23'0 0.0
2017-Dec-10 11:58N 34°34' E 135°23'0 0.0
2017-Dec-10 11:28N 34°34' E 135°23'0 0.0
2017-Dec-10 10:58N 34°34' E 135°23'0 0.0
2017-Dec-10 10:28N 34°34' E 135°23'0 0.0
2017-Dec-10 09:58N 34°34' E 135°23'0 0.0
2017-Dec-10 09:28N 34°34' E 135°23'0 0.0
2017-Dec-10 08:58N 34°34' E 135°23'0 0.0
2017-Dec-10 08:28N 34°34' E 135°23'0 0.0
2017-Dec-10 07:58N 34°34' E 135°23'0 0.0
2017-Dec-10 07:28N 34°34' E 135°23'0 0.0
2017-Dec-10 06:58N 34°34' E 135°23'0 0.0
2017-Dec-10 06:28N 34°34' E 135°23'0 0.0
2017-Dec-10 05:58N 34°34' E 135°23'0 0.0
2017-Dec-10 05:28N 34°34' E 135°23'0 0.0
2017-Dec-10 04:58N 34°34' E 135°23'0 0.0
2017-Dec-10 04:28N 34°34' E 135°23'0 0.0
2017-Dec-10 03:55N 34°34' E 135°23'0 0.0
2017-Dec-10 03:28N 34°34' E 135°23'0 0.0
2017-Dec-10 02:58N 34°34' E 135°23'0 0.0
2017-Dec-10 02:28N 34°34' E 135°23'0 0.1
2017-Dec-10 01:58N 34°34' E 135°23'0 0.0
2017-Dec-10 01:28N 34°34' E 135°23'0 0.0
2017-Dec-10 00:58N 34°34' E 135°23'0 0.0
2017-Dec-10 00:30N 34°34' E 135°23'5 9.2
2017-Dec-10 00:00N 34°34' E 135°18'611.5
2017-Dec-09 23:30N 34°34' E 135°11'611.7
2017-Dec-09 23:00N 34°36' E 135°04'612.4
2017-Dec-09 22:31N 34°36' E 134°56'713.4
2017-Dec-09 22:01N 34°33' E 134°49'612.3
2017-Dec-09 21:30N 34°31' E 134°42'612.0
2017-Dec-09 21:00N 34°29' E 134°35'611.9
2017-Dec-09 20:30N 34°26' E 134°28'1411.8
2017-Dec-09 19:18N 34°25' E 134°11'7410.7
2017-Dec-09 12:23N 34°01' E 132°46'411.0
2017-Dec-09 12:00N 33°58' E 132°43'510.5
2017-Dec-09 11:29N 33°54' E 132°38'611.0
2017-Dec-09 10:59N 33°52' E 132°32'610.9
2017-Dec-09 10:25N 33°50' E 132°25'510.7
2017-Dec-09 09:55N 33°50' E 132°18'611.1
2017-Dec-09 09:23N 33°49' E 132°11'411.0
2017-Dec-09 09:00N 33°47' E 132°07'1011.1
2017-Dec-09 08:05N 33°45' E 131°55'111.9
2017-Dec-09 08:00N 33°45' E 131°54'612.1
2017-Dec-09 07:30N 33°46' E 131°47'612.3
2017-Dec-09 07:00N 33°48' E 131°39'612.0
2017-Dec-09 06:30N 33°49' E 131°32'611.9
2017-Dec-09 06:00N 33°50' E 131°25'611.8
2017-Dec-09 05:30N 33°51' E 131°18'611.8
2017-Dec-09 05:00N 33°53' E 131°12'611.4
2017-Dec-09 04:30N 33°56' E 131°06'510.7
2017-Dec-09 04:01N 33°58' E 131°00'4 8.4
2017-Dec-09 03:30N 33°56' E 130°56'3 6.2
2017-Dec-09 03:00N 33°55' E 130°53'1 2.1
2017-Dec-09 02:25N 33°55' E 130°51'0 0.0
2017-Dec-09 01:58N 33°55' E 130°51'0 0.0
2017-Dec-09 01:25N 33°55' E 130°51'0 0.0
2017-Dec-09 00:58N 33°55' E 130°51'0 0.1
2017-Dec-09 00:30N 33°55' E 130°51'3 6.4
2017-Dec-09 00:00N 33°55' E 130°55'4 7.8
2017-Dec-08 23:30N 33°58' E 130°58'4 7.6
2017-Dec-08 23:00N 33°58' E 131°02'511.0
2017-Dec-08 22:30N 33°55' E 131°08'611.1
2017-Dec-08 22:00N 33°52' E 131°14'611.0
2017-Dec-08 21:30N 33°51' E 131°20'510.8
2017-Dec-08 21:00N 33°51' E 131°27'510.6
2017-Dec-08 20:30N 33°50' E 131°33'510.6
2017-Dec-08 20:01N 33°49' E 131°39'510.2
2017-Dec-08 19:30N 33°47' E 131°45'610.1
2017-Dec-08 18:56N 33°46' E 131°52'810.4
2017-Dec-08 18:07N 33°45' E 132°02'211.3
2017-Dec-08 17:58N 33°46' E 132°04'611.7
2017-Dec-08 17:28N 33°49' E 132°10'711.2
2017-Dec-08 16:48N 33°50' E 132°19'1010.9
2017-Dec-08 15:55N 33°52' E 132°30'410.7
2017-Dec-08 15:30N 33°54' E 132°35'510.1
2017-Dec-08 15:00N 33°56' E 132°40'5 9.9
2017-Dec-08 14:30N 34°00' E 132°44'85 9.5
2017-Dec-08 05:30N 34°25' E 134°23'510.8
2017-Dec-08 05:00N 34°28' E 134°29'510.9
2017-Dec-08 04:31N 34°29' E 134°35'611.1
2017-Dec-08 04:01N 34°32' E 134°41'612.4
2017-Dec-08 03:30N 34°34' E 134°48'713.7
2017-Dec-08 03:00N 34°36' E 134°56'612.9
2017-Dec-08 02:30N 34°36' E 135°04'611.1
2017-Dec-08 02:00N 34°35' E 135°11'611.3
2017-Dec-08 01:30N 34°34' E 135°17'611.2
2017-Dec-08 01:00N 34°33' E 135°24'1 2.4
2017-Dec-08 00:27N 34°33' E 135°26'0 0.0
2017-Dec-07 23:57N 34°33' E 135°26'0 0.0
2017-Dec-07 23:15N 34°33' E 135°26'0 0.0
2017-Dec-07 22:57N 34°33' E 135°26'0 0.0
2017-Dec-07 22:30N 34°33' E 135°26'1 2.1
2017-Dec-07 22:00N 34°33' E 135°24'1 1.9
2017-Dec-07 21:26N 34°34' E 135°23'0 0.1
2017-Dec-07 20:59N 34°34' E 135°23'0 0.0
2017-Dec-07 20:29N 34°34' E 135°23'0 0.0
2017-Dec-07 19:59N 34°34' E 135°23'0 0.0
2017-Dec-07 19:29N 34°34' E 135°23'0 0.0
2017-Dec-07 18:59N 34°34' E 135°23'0 0.0
2017-Dec-07 18:29N 34°34' E 135°23'0 0.0
2017-Dec-07 17:59N 34°34' E 135°23'0 0.0
2017-Dec-07 17:29N 34°34' E 135°23'0 0.0
2017-Dec-07 16:59N 34°34' E 135°23'  

Dump ship's entire track history